sensor_id;sensor_type;location;lat;lon;timestamp;temperature;humidity
35111;DHT22;21290;50.158;8.658;2024-01-06T00:00:05;4.60;99.90
35111;DHT22;21290;50.158;8.658;2024-01-06T00:02:32;4.50;99.90
35111;DHT22;21290;50.158;8.658;2024-01-06T00:04:59;4.50;99.90
35111;DHT22;21290;50.158;8.658;2024-01-06T00:07:25;4.50;99.90
35111;DHT22;21290;50.158;8.658;2024-01-06T00:09:52;4.50;99.90
35111;DHT22;21290;50.158;8.658;2024-01-06T00:12:20;4.50;99.90
35111;DHT22;21290;50.158;8.658;2024-01-06T00:14:47;4.50;99.90
35111;DHT22;21290;50.158;8.658;2024-01-06T00:17:13;4.40;99.90
35111;DHT22;21290;50.158;8.658;2024-01-06T00:19:40;4.40;99.90
35111;DHT22;21290;50.158;8.658;2024-01-06T00:22:08;4.40;99.90
35111;DHT22;21290;50.158;8.658;2024-01-06T00:24:34;4.30;99.90
35111;DHT22;21290;50.158;8.658;2024-01-06T00:27:01;4.30;99.90
35111;DHT22;21290;50.158;8.658;2024-01-06T00:29:28;4.30;99.90
35111;DHT22;21290;50.158;8.658;2024-01-06T00:31:54;4.20;99.90
35111;DHT22;21290;50.158;8.658;2024-01-06T00:34:21;4.20;99.90
35111;DHT22;21290;50.158;8.658;2024-01-06T00:36:48;4.10;99.90
35111;DHT22;21290;50.158;8.658;2024-01-06T00:39:14;4.10;99.90
35111;DHT22;21290;50.158;8.658;2024-01-06T00:41:41;4.00;99.90
35111;DHT22;21290;50.158;8.658;2024-01-06T00:44:07;4.10;99.90
35111;DHT22;21290;50.158;8.658;2024-01-06T00:46:34;4.00;99.90
35111;DHT22;21290;50.158;8.658;2024-01-06T00:49:01;4.00;99.90
35111;DHT22;21290;50.158;8.658;2024-01-06T00:51:27;3.90;99.90
35111;DHT22;21290;50.158;8.658;2024-01-06T00:53:54;3.80;99.90
35111;DHT22;21290;50.158;8.658;2024-01-06T00:56:21;3.90;99.90
35111;DHT22;21290;50.158;8.658;2024-01-06T00:58:48;3.90;99.90
35111;DHT22;21290;50.158;8.658;2024-01-06T01:01:14;3.80;99.90
35111;DHT22;21290;50.158;8.658;2024-01-06T01:03:41;3.90;99.90
35111;DHT22;21290;50.158;8.658;2024-01-06T01:06:08;3.90;99.90
35111;DHT22;21290;50.158;8.658;2024-01-06T01:08:34;4.00;99.90
35111;DHT22;21290;50.158;8.658;2024-01-06T01:11:01;4.10;99.90
35111;DHT22;21290;50.158;8.658;2024-01-06T01:13:28;4.10;99.90
35111;DHT22;21290;50.158;8.658;2024-01-06T01:15:55;4.20;99.90
35111;DHT22;21290;50.158;8.658;2024-01-06T01:18:22;4.20;99.90
35111;DHT22;21290;50.158;8.658;2024-01-06T01:20:49;4.20;99.90
35111;DHT22;21290;50.158;8.658;2024-01-06T01:23:15;4.30;99.90
35111;DHT22;21290;50.158;8.658;2024-01-06T01:25:42;4.40;99.90
35111;DHT22;21290;50.158;8.658;2024-01-06T01:28:08;4.40;99.90
35111;DHT22;21290;50.158;8.658;2024-01-06T01:30:35;4.40;99.90
35111;DHT22;21290;50.158;8.658;2024-01-06T01:33:02;4.40;99.90
35111;DHT22;21290;50.158;8.658;2024-01-06T01:35:29;4.40;99.90
35111;DHT22;21290;50.158;8.658;2024-01-06T01:37:56;4.50;99.90
35111;DHT22;21290;50.158;8.658;2024-01-06T01:40:22;4.50;99.90
35111;DHT22;21290;50.158;8.658;2024-01-06T01:42:49;4.40;99.90
35111;DHT22;21290;50.158;8.658;2024-01-06T01:45:16;4.50;99.90
35111;DHT22;21290;50.158;8.658;2024-01-06T01:47:43;4.50;99.90
35111;DHT22;21290;50.158;8.658;2024-01-06T01:50:12;4.50;99.90
35111;DHT22;21290;50.158;8.658;2024-01-06T01:52:40;4.50;99.90
35111;DHT22;21290;50.158;8.658;2024-01-06T01:55:08;4.50;99.90
35111;DHT22;21290;50.158;8.658;2024-01-06T01:57:35;4.60;99.90
35111;DHT22;21290;50.158;8.658;2024-01-06T02:00:01;4.60;99.90
35111;DHT22;21290;50.158;8.658;2024-01-06T02:02:29;4.70;99.90
35111;DHT22;21290;50.158;8.658;2024-01-06T02:04:56;4.70;99.90
35111;DHT22;21290;50.158;8.658;2024-01-06T02:07:23;4.70;99.90
35111;DHT22;21290;50.158;8.658;2024-01-06T02:09:49;4.70;99.90
35111;DHT22;21290;50.158;8.658;2024-01-06T02:12:16;4.70;99.90
35111;DHT22;21290;50.158;8.658;2024-01-06T02:14:43;4.80;99.90
35111;DHT22;21290;50.158;8.658;2024-01-06T02:17:09;4.80;99.90
35111;DHT22;21290;50.158;8.658;2024-01-06T02:19:36;4.80;99.90
35111;DHT22;21290;50.158;8.658;2024-01-06T02:22:03;4.80;99.90
35111;DHT22;21290;50.158;8.658;2024-01-06T02:24:30;4.90;99.90
35111;DHT22;21290;50.158;8.658;2024-01-06T02:26:56;4.90;99.90
35111;DHT22;21290;50.158;8.658;2024-01-06T02:29:23;4.90;99.90
35111;DHT22;21290;50.158;8.658;2024-01-06T02:31:49;4.90;99.90
35111;DHT22;21290;50.158;8.658;2024-01-06T02:34:16;4.90;99.90
35111;DHT22;21290;50.158;8.658;2024-01-06T02:36:43;4.90;99.90
35111;DHT22;21290;50.158;8.658;2024-01-06T02:39:09;5.00;99.90
35111;DHT22;21290;50.158;8.658;2024-01-06T02:41:36;4.90;99.90
35111;DHT22;21290;50.158;8.658;2024-01-06T02:44:03;5.00;99.90
35111;DHT22;21290;50.158;8.658;2024-01-06T02:46:30;5.00;99.90
35111;DHT22;21290;50.158;8.658;2024-01-06T02:48:57;5.00;99.90
35111;DHT22;21290;50.158;8.658;2024-01-06T02:51:24;5.00;99.90
35111;DHT22;21290;50.158;8.658;2024-01-06T02:53:50;5.10;99.90
35111;DHT22;21290;50.158;8.658;2024-01-06T02:56:17;5.00;99.90
35111;DHT22;21290;50.158;8.658;2024-01-06T02:58:44;5.00;99.90
35111;DHT22;21290;50.158;8.658;2024-01-06T03:01:11;5.00;99.90
35111;DHT22;21290;50.158;8.658;2024-01-06T03:03:38;5.00;99.90
35111;DHT22;21290;50.158;8.658;2024-01-06T03:06:05;5.00;99.90
35111;DHT22;21290;50.158;8.658;2024-01-06T03:08:32;5.00;99.90
35111;DHT22;21290;50.158;8.658;2024-01-06T03:10:58;5.00;99.90
35111;DHT22;21290;50.158;8.658;2024-01-06T03:13:25;5.00;99.90
35111;DHT22;21290;50.158;8.658;2024-01-06T03:15:51;5.10;99.90
35111;DHT22;21290;50.158;8.658;2024-01-06T03:18:18;5.00;99.90
35111;DHT22;21290;50.158;8.658;2024-01-06T03:20:45;5.10;99.90
35111;DHT22;21290;50.158;8.658;2024-01-06T03:23:12;5.10;99.90
35111;DHT22;21290;50.158;8.658;2024-01-06T03:25:38;5.10;99.90
35111;DHT22;21290;50.158;8.658;2024-01-06T03:28:05;5.10;99.90
35111;DHT22;21290;50.158;8.658;2024-01-06T03:30:31;5.20;99.90
35111;DHT22;21290;50.158;8.658;2024-01-06T03:32:58;5.20;99.90
35111;DHT22;21290;50.158;8.658;2024-01-06T03:35:25;5.20;99.90
35111;DHT22;21290;50.158;8.658;2024-01-06T03:37:51;5.20;99.90
35111;DHT22;21290;50.158;8.658;2024-01-06T03:40:18;5.20;99.90
35111;DHT22;21290;50.158;8.658;2024-01-06T03:42:45;5.20;99.90
35111;DHT22;21290;50.158;8.658;2024-01-06T03:45:11;5.20;99.90
35111;DHT22;21290;50.158;8.658;2024-01-06T03:47:38;5.20;99.90
35111;DHT22;21290;50.158;8.658;2024-01-06T03:50:05;5.20;99.90
35111;DHT22;21290;50.158;8.658;2024-01-06T03:52:32;5.20;99.90
35111;DHT22;21290;50.158;8.658;2024-01-06T03:54:59;5.30;99.90
35111;DHT22;21290;50.158;8.658;2024-01-06T03:57:25;5.30;99.90
35111;DHT22;21290;50.158;8.658;2024-01-06T03:59:52;5.30;99.90
35111;DHT22;21290;50.158;8.658;2024-01-06T04:02:19;5.30;99.90
35111;DHT22;21290;50.158;8.658;2024-01-06T04:04:45;5.30;99.90
35111;DHT22;21290;50.158;8.658;2024-01-06T04:07:13;5.30;99.90
35111;DHT22;21290;50.158;8.658;2024-01-06T04:09:42;5.20;99.90
35111;DHT22;21290;50.158;8.658;2024-01-06T04:12:09;5.20;99.90
35111;DHT22;21290;50.158;8.658;2024-01-06T04:14:35;5.20;99.90
35111;DHT22;21290;50.158;8.658;2024-01-06T04:17:02;5.20;99.90
35111;DHT22;21290;50.158;8.658;2024-01-06T04:19:29;5.20;99.90
35111;DHT22;21290;50.158;8.658;2024-01-06T04:21:55;5.20;99.90
35111;DHT22;21290;50.158;8.658;2024-01-06T04:24:22;5.20;99.90
35111;DHT22;21290;50.158;8.658;2024-01-06T04:26:49;5.30;99.90
35111;DHT22;21290;50.158;8.658;2024-01-06T04:29:16;5.20;99.90
35111;DHT22;21290;50.158;8.658;2024-01-06T04:31:42;5.30;99.90
35111;DHT22;21290;50.158;8.658;2024-01-06T04:34:09;5.20;99.90
35111;DHT22;21290;50.158;8.658;2024-01-06T04:36:36;5.20;99.90
35111;DHT22;21290;50.158;8.658;2024-01-06T04:39:03;5.20;99.90
35111;DHT22;21290;50.158;8.658;2024-01-06T04:41:29;5.30;99.90
35111;DHT22;21290;50.158;8.658;2024-01-06T04:43:56;5.30;99.90
35111;DHT22;21290;50.158;8.658;2024-01-06T04:46:23;5.20;99.90
35111;DHT22;21290;50.158;8.658;2024-01-06T04:48:50;5.20;99.90
35111;DHT22;21290;50.158;8.658;2024-01-06T04:51:17;5.20;99.90
35111;DHT22;21290;50.158;8.658;2024-01-06T04:53:44;5.20;99.90
35111;DHT22;21290;50.158;8.658;2024-01-06T04:56:11;5.20;99.90
35111;DHT22;21290;50.158;8.658;2024-01-06T04:58:37;5.30;99.90
35111;DHT22;21290;50.158;8.658;2024-01-06T05:01:04;5.30;99.90
35111;DHT22;21290;50.158;8.658;2024-01-06T05:03:31;5.30;99.90
35111;DHT22;21290;50.158;8.658;2024-01-06T05:05:58;5.30;99.90
35111;DHT22;21290;50.158;8.658;2024-01-06T05:08:24;5.30;99.90
35111;DHT22;21290;50.158;8.658;2024-01-06T05:10:52;5.30;99.90
35111;DHT22;21290;50.158;8.658;2024-01-06T05:13:19;5.30;99.90
35111;DHT22;21290;50.158;8.658;2024-01-06T05:15:46;5.30;99.90
35111;DHT22;21290;50.158;8.658;2024-01-06T05:18:13;5.30;99.90
35111;DHT22;21290;50.158;8.658;2024-01-06T05:20:40;5.30;99.90
35111;DHT22;21290;50.158;8.658;2024-01-06T05:23:07;5.30;99.90
35111;DHT22;21290;50.158;8.658;2024-01-06T05:25:34;5.30;99.90
35111;DHT22;21290;50.158;8.658;2024-01-06T05:28:00;5.30;99.90
35111;DHT22;21290;50.158;8.658;2024-01-06T05:30:27;5.40;99.90
35111;DHT22;21290;50.158;8.658;2024-01-06T05:32:54;5.40;99.90
35111;DHT22;21290;50.158;8.658;2024-01-06T05:35:20;5.40;99.90
35111;DHT22;21290;50.158;8.658;2024-01-06T05:37:47;5.40;99.90
35111;DHT22;21290;50.158;8.658;2024-01-06T05:40:14;5.40;99.90
35111;DHT22;21290;50.158;8.658;2024-01-06T05:42:41;5.40;99.90
35111;DHT22;21290;50.158;8.658;2024-01-06T05:45:10;5.40;99.90
35111;DHT22;21290;50.158;8.658;2024-01-06T05:47:39;5.40;99.90
35111;DHT22;21290;50.158;8.658;2024-01-06T05:50:06;5.40;99.90
35111;DHT22;21290;50.158;8.658;2024-01-06T05:52:36;5.40;99.90
35111;DHT22;21290;50.158;8.658;2024-01-06T05:55:03;5.40;99.90
35111;DHT22;21290;50.158;8.658;2024-01-06T05:57:30;5.40;99.90
35111;DHT22;21290;50.158;8.658;2024-01-06T05:59:56;5.40;99.90
35111;DHT22;21290;50.158;8.658;2024-01-06T06:02:23;5.40;99.90
35111;DHT22;21290;50.158;8.658;2024-01-06T06:04:50;5.40;99.90
35111;DHT22;21290;50.158;8.658;2024-01-06T06:07:16;5.40;99.90
35111;DHT22;21290;50.158;8.658;2024-01-06T06:09:43;5.40;99.90
35111;DHT22;21290;50.158;8.658;2024-01-06T06:12:10;5.40;99.90
35111;DHT22;21290;50.158;8.658;2024-01-06T06:14:36;5.40;99.90
35111;DHT22;21290;50.158;8.658;2024-01-06T06:17:03;5.40;99.90
35111;DHT22;21290;50.158;8.658;2024-01-06T06:19:30;5.40;99.90
35111;DHT22;21290;50.158;8.658;2024-01-06T06:21:57;5.40;99.90
35111;DHT22;21290;50.158;8.658;2024-01-06T06:24:24;5.40;99.90
35111;DHT22;21290;50.158;8.658;2024-01-06T06:26:50;5.40;99.90
35111;DHT22;21290;50.158;8.658;2024-01-06T06:29:17;5.30;99.90
35111;DHT22;21290;50.158;8.658;2024-01-06T06:31:43;5.30;99.90
35111;DHT22;21290;50.158;8.658;2024-01-06T06:34:11;5.30;99.90
35111;DHT22;21290;50.158;8.658;2024-01-06T06:36:38;5.40;99.90
35111;DHT22;21290;50.158;8.658;2024-01-06T06:39:05;5.30;99.90
35111;DHT22;21290;50.158;8.658;2024-01-06T06:41:31;5.30;99.90
35111;DHT22;21290;50.158;8.658;2024-01-06T06:43:58;5.30;99.90
35111;DHT22;21290;50.158;8.658;2024-01-06T06:46:26;5.30;99.90
35111;DHT22;21290;50.158;8.658;2024-01-06T06:48:52;5.30;99.90
35111;DHT22;21290;50.158;8.658;2024-01-06T06:51:19;5.30;99.90
35111;DHT22;21290;50.158;8.658;2024-01-06T06:53:51;5.30;99.90
35111;DHT22;21290;50.158;8.658;2024-01-06T06:56:18;5.30;99.90
35111;DHT22;21290;50.158;8.658;2024-01-06T06:58:44;5.30;99.90
35111;DHT22;21290;50.158;8.658;2024-01-06T07:01:16;5.30;99.90
35111;DHT22;21290;50.158;8.658;2024-01-06T07:03:43;5.30;99.90
35111;DHT22;21290;50.158;8.658;2024-01-06T07:06:13;5.30;99.90
35111;DHT22;21290;50.158;8.658;2024-01-06T07:08:40;5.30;99.90
35111;DHT22;21290;50.158;8.658;2024-01-06T07:11:08;5.30;99.90
35111;DHT22;21290;50.158;8.658;2024-01-06T07:13:35;5.30;99.90
35111;DHT22;21290;50.158;8.658;2024-01-06T07:16:02;5.30;99.90
35111;DHT22;21290;50.158;8.658;2024-01-06T07:18:43;5.30;99.90
35111;DHT22;21290;50.158;8.658;2024-01-06T07:21:12;5.30;99.90
35111;DHT22;21290;50.158;8.658;2024-01-06T07:23:39;5.30;99.90
35111;DHT22;21290;50.158;8.658;2024-01-06T07:26:05;5.30;99.90
35111;DHT22;21290;50.158;8.658;2024-01-06T07:28:33;5.30;99.90
35111;DHT22;21290;50.158;8.658;2024-01-06T07:31:00;5.30;99.90
35111;DHT22;21290;50.158;8.658;2024-01-06T07:33:27;5.40;99.90
35111;DHT22;21290;50.158;8.658;2024-01-06T07:35:55;5.40;99.90
35111;DHT22;21290;50.158;8.658;2024-01-06T07:38:21;5.30;99.90
35111;DHT22;21290;50.158;8.658;2024-01-06T07:40:48;5.40;99.90
35111;DHT22;21290;50.158;8.658;2024-01-06T07:43:15;5.40;99.90
35111;DHT22;21290;50.158;8.658;2024-01-06T07:45:41;5.40;99.90
35111;DHT22;21290;50.158;8.658;2024-01-06T07:48:08;5.40;99.90
35111;DHT22;21290;50.158;8.658;2024-01-06T07:50:35;5.50;99.90
35111;DHT22;21290;50.158;8.658;2024-01-06T07:53:02;5.40;99.90
35111;DHT22;21290;50.158;8.658;2024-01-06T07:55:28;5.40;99.90
35111;DHT22;21290;50.158;8.658;2024-01-06T07:57:55;5.40;99.90
35111;DHT22;21290;50.158;8.658;2024-01-06T08:00:22;5.40;99.90
35111;DHT22;21290;50.158;8.658;2024-01-06T08:02:48;5.50;99.90
35111;DHT22;21290;50.158;8.658;2024-01-06T08:05:15;5.50;99.90
35111;DHT22;21290;50.158;8.658;2024-01-06T08:07:42;5.50;99.90
35111;DHT22;21290;50.158;8.658;2024-01-06T08:10:08;5.50;99.90
35111;DHT22;21290;50.158;8.658;2024-01-06T08:12:35;5.50;99.90
35111;DHT22;21290;50.158;8.658;2024-01-06T08:15:03;5.50;99.90
35111;DHT22;21290;50.158;8.658;2024-01-06T08:17:31;5.50;99.90
35111;DHT22;21290;50.158;8.658;2024-01-06T08:19:57;5.50;99.90
35111;DHT22;21290;50.158;8.658;2024-01-06T08:22:24;5.60;99.90
35111;DHT22;21290;50.158;8.658;2024-01-06T08:24:51;5.60;99.90
35111;DHT22;21290;50.158;8.658;2024-01-06T08:27:17;5.70;99.90
35111;DHT22;21290;50.158;8.658;2024-01-06T08:29:44;5.60;99.90
35111;DHT22;21290;50.158;8.658;2024-01-06T08:32:11;5.70;99.90
35111;DHT22;21290;50.158;8.658;2024-01-06T08:34:38;5.60;99.90
35111;DHT22;21290;50.158;8.658;2024-01-06T08:37:04;5.70;99.90
35111;DHT22;21290;50.158;8.658;2024-01-06T08:39:31;5.70;99.90
35111;DHT22;21290;50.158;8.658;2024-01-06T08:41:58;5.70;99.90
35111;DHT22;21290;50.158;8.658;2024-01-06T08:44:27;5.80;99.90
35111;DHT22;21290;50.158;8.658;2024-01-06T08:46:54;5.80;99.90
35111;DHT22;21290;50.158;8.658;2024-01-06T08:49:21;5.80;99.90
35111;DHT22;21290;50.158;8.658;2024-01-06T08:51:48;5.80;99.90
35111;DHT22;21290;50.158;8.658;2024-01-06T08:54:15;5.80;99.90
35111;DHT22;21290;50.158;8.658;2024-01-06T08:56:42;5.80;99.90
35111;DHT22;21290;50.158;8.658;2024-01-06T08:59:08;5.80;99.90
35111;DHT22;21290;50.158;8.658;2024-01-06T09:01:35;5.80;99.90
35111;DHT22;21290;50.158;8.658;2024-01-06T09:04:03;5.90;99.90
35111;DHT22;21290;50.158;8.658;2024-01-06T09:06:31;6.00;99.90
35111;DHT22;21290;50.158;8.658;2024-01-06T09:08:58;6.00;99.90
35111;DHT22;21290;50.158;8.658;2024-01-06T09:11:24;6.00;99.90
35111;DHT22;21290;50.158;8.658;2024-01-06T09:13:51;6.00;99.90
35111;DHT22;21290;50.158;8.658;2024-01-06T09:16:19;6.00;99.90
35111;DHT22;21290;50.158;8.658;2024-01-06T09:18:46;5.90;99.90
35111;DHT22;21290;50.158;8.658;2024-01-06T09:21:13;5.90;99.90
35111;DHT22;21290;50.158;8.658;2024-01-06T09:23:39;5.80;99.90
35111;DHT22;21290;50.158;8.658;2024-01-06T09:26:06;5.80;99.90
35111;DHT22;21290;50.158;8.658;2024-01-06T09:28:33;5.80;99.90
35111;DHT22;21290;50.158;8.658;2024-01-06T09:30:59;5.80;99.90
35111;DHT22;21290;50.158;8.658;2024-01-06T09:33:26;5.80;99.90
35111;DHT22;21290;50.158;8.658;2024-01-06T09:35:53;5.80;99.90
35111;DHT22;21290;50.158;8.658;2024-01-06T09:38:20;5.90;99.90
35111;DHT22;21290;50.158;8.658;2024-01-06T09:40:48;5.90;99.90
35111;DHT22;21290;50.158;8.658;2024-01-06T09:43:15;5.90;99.90
35111;DHT22;21290;50.158;8.658;2024-01-06T09:45:43;5.90;99.90
35111;DHT22;21290;50.158;8.658;2024-01-06T09:48:12;6.00;99.90
35111;DHT22;21290;50.158;8.658;2024-01-06T09:50:43;6.00;99.90
35111;DHT22;21290;50.158;8.658;2024-01-06T09:53:11;6.00;99.90
35111;DHT22;21290;50.158;8.658;2024-01-06T09:55:38;6.00;99.90
35111;DHT22;21290;50.158;8.658;2024-01-06T09:58:05;6.00;99.90
35111;DHT22;21290;50.158;8.658;2024-01-06T10:00:33;6.00;99.90
35111;DHT22;21290;50.158;8.658;2024-01-06T10:03:00;6.10;99.90
35111;DHT22;21290;50.158;8.658;2024-01-06T10:05:26;6.10;99.90
35111;DHT22;21290;50.158;8.658;2024-01-06T10:07:53;6.10;99.90
35111;DHT22;21290;50.158;8.658;2024-01-06T10:10:22;6.10;99.90
35111;DHT22;21290;50.158;8.658;2024-01-06T10:12:53;6.20;99.90
35111;DHT22;21290;50.158;8.658;2024-01-06T10:15:20;6.20;99.90
35111;DHT22;21290;50.158;8.658;2024-01-06T10:17:47;6.30;99.90
35111;DHT22;21290;50.158;8.658;2024-01-06T10:20:14;6.30;99.90
35111;DHT22;21290;50.158;8.658;2024-01-06T10:22:42;6.30;99.90
35111;DHT22;21290;50.158;8.658;2024-01-06T10:25:10;6.30;99.90
35111;DHT22;21290;50.158;8.658;2024-01-06T10:27:38;6.40;99.90
35111;DHT22;21290;50.158;8.658;2024-01-06T10:30:06;6.40;99.90
35111;DHT22;21290;50.158;8.658;2024-01-06T10:32:34;6.40;99.90
35111;DHT22;21290;50.158;8.658;2024-01-06T10:35:01;6.40;99.90
35111;DHT22;21290;50.158;8.658;2024-01-06T10:37:28;6.40;99.90
35111;DHT22;21290;50.158;8.658;2024-01-06T10:42:33;6.50;99.90
35111;DHT22;21290;50.158;8.658;2024-01-06T10:45:00;6.60;99.90
35111;DHT22;21290;50.158;8.658;2024-01-06T10:47:29;6.50;99.90
35111;DHT22;21290;50.158;8.658;2024-01-06T10:50:01;6.50;99.90
35111;DHT22;21290;50.158;8.658;2024-01-06T10:52:28;6.60;99.90
35111;DHT22;21290;50.158;8.658;2024-01-06T10:54:55;6.60;99.90
35111;DHT22;21290;50.158;8.658;2024-01-06T10:57:22;6.60;99.90
35111;DHT22;21290;50.158;8.658;2024-01-06T10:59:51;6.70;99.90
35111;DHT22;21290;50.158;8.658;2024-01-06T11:02:18;6.80;99.90
35111;DHT22;21290;50.158;8.658;2024-01-06T11:04:46;6.90;99.90
35111;DHT22;21290;50.158;8.658;2024-01-06T11:07:16;6.90;99.90
35111;DHT22;21290;50.158;8.658;2024-01-06T11:12:32;7.00;99.90
35111;DHT22;21290;50.158;8.658;2024-01-06T11:14:59;7.10;99.90
35111;DHT22;21290;50.158;8.658;2024-01-06T11:17:48;7.10;99.90
35111;DHT22;21290;50.158;8.658;2024-01-06T11:20:15;7.30;99.90
35111;DHT22;21290;50.158;8.658;2024-01-06T11:22:42;7.40;99.90
35111;DHT22;21290;50.158;8.658;2024-01-06T11:25:14;7.40;99.90
35111;DHT22;21290;50.158;8.658;2024-01-06T11:27:45;7.70;99.90
35111;DHT22;21290;50.158;8.658;2024-01-06T11:30:31;7.90;99.90
35111;DHT22;21290;50.158;8.658;2024-01-06T11:33:04;8.20;99.90
35111;DHT22;21290;50.158;8.658;2024-01-06T11:35:31;8.50;99.90
35111;DHT22;21290;50.158;8.658;2024-01-06T11:38:00;8.80;99.90
35111;DHT22;21290;50.158;8.658;2024-01-06T11:40:35;8.90;99.90
35111;DHT22;21290;50.158;8.658;2024-01-06T11:45:32;9.10;99.90
35111;DHT22;21290;50.158;8.658;2024-01-06T11:48:01;9.20;99.90
35111;DHT22;21290;50.158;8.658;2024-01-06T11:50:31;9.20;99.90
35111;DHT22;21290;50.158;8.658;2024-01-06T11:52:59;9.20;99.90
35111;DHT22;21290;50.158;8.658;2024-01-06T11:55:29;9.10;99.90
35111;DHT22;21290;50.158;8.658;2024-01-06T11:57:59;9.10;99.90
35111;DHT22;21290;50.158;8.658;2024-01-06T12:00:31;9.00;99.90
35111;DHT22;21290;50.158;8.658;2024-01-06T12:02:59;9.00;99.90
35111;DHT22;21290;50.158;8.658;2024-01-06T12:05:28;9.00;99.90
35111;DHT22;21290;50.158;8.658;2024-01-06T12:07:59;8.90;99.90
35111;DHT22;21290;50.158;8.658;2024-01-06T12:10:27;8.80;99.90
35111;DHT22;21290;50.158;8.658;2024-01-06T12:12:59;8.90;99.90
35111;DHT22;21290;50.158;8.658;2024-01-06T12:15:28;8.90;99.90
35111;DHT22;21290;50.158;8.658;2024-01-06T12:17:56;8.80;99.90
35111;DHT22;21290;50.158;8.658;2024-01-06T12:20:23;8.70;99.90
35111;DHT22;21290;50.158;8.658;2024-01-06T12:22:52;8.70;99.90
35111;DHT22;21290;50.158;8.658;2024-01-06T12:25:24;8.70;99.90
35111;DHT22;21290;50.158;8.658;2024-01-06T12:27:52;8.70;99.90
35111;DHT22;21290;50.158;8.658;2024-01-06T12:30:22;8.70;99.90
35111;DHT22;21290;50.158;8.658;2024-01-06T12:32:50;8.80;99.90
35111;DHT22;21290;50.158;8.658;2024-01-06T12:35:20;8.90;99.90
35111;DHT22;21290;50.158;8.658;2024-01-06T12:37:48;8.80;99.90
35111;DHT22;21290;50.158;8.658;2024-01-06T12:40:19;8.60;99.90
35111;DHT22;21290;50.158;8.658;2024-01-06T12:42:46;8.60;99.90
35111;DHT22;21290;50.158;8.658;2024-01-06T12:45:13;8.60;99.90
35111;DHT22;21290;50.158;8.658;2024-01-06T12:47:42;8.50;99.90
35111;DHT22;21290;50.158;8.658;2024-01-06T12:50:09;8.50;99.90
35111;DHT22;21290;50.158;8.658;2024-01-06T12:52:36;8.40;99.90
35111;DHT22;21290;50.158;8.658;2024-01-06T12:55:05;8.30;99.90
35111;DHT22;21290;50.158;8.658;2024-01-06T12:57:32;8.10;99.90
35111;DHT22;21290;50.158;8.658;2024-01-06T13:00:00;8.20;99.90
35111;DHT22;21290;50.158;8.658;2024-01-06T13:02:27;8.20;99.90
35111;DHT22;21290;50.158;8.658;2024-01-06T13:04:53;8.30;99.90
35111;DHT22;21290;50.158;8.658;2024-01-06T13:07:21;8.20;99.90
35111;DHT22;21290;50.158;8.658;2024-01-06T13:09:48;8.20;99.90
35111;DHT22;21290;50.158;8.658;2024-01-06T13:12:15;8.10;99.90
35111;DHT22;21290;50.158;8.658;2024-01-06T13:14:44;8.10;99.90
35111;DHT22;21290;50.158;8.658;2024-01-06T13:17:13;8.10;99.90
35111;DHT22;21290;50.158;8.658;2024-01-06T13:19:41;8.20;99.90
35111;DHT22;21290;50.158;8.658;2024-01-06T13:22:07;8.20;99.90
35111;DHT22;21290;50.158;8.658;2024-01-06T13:24:34;8.30;99.90
35111;DHT22;21290;50.158;8.658;2024-01-06T13:27:01;8.40;99.90
35111;DHT22;21290;50.158;8.658;2024-01-06T13:29:29;8.40;99.90
35111;DHT22;21290;50.158;8.658;2024-01-06T13:31:56;8.50;99.90
35111;DHT22;21290;50.158;8.658;2024-01-06T13:34:24;8.40;99.90
35111;DHT22;21290;50.158;8.658;2024-01-06T13:36:51;8.40;99.90
35111;DHT22;21290;50.158;8.658;2024-01-06T13:39:19;8.40;99.90
35111;DHT22;21290;50.158;8.658;2024-01-06T13:41:49;8.40;99.90
35111;DHT22;21290;50.158;8.658;2024-01-06T13:44:16;8.40;99.90
35111;DHT22;21290;50.158;8.658;2024-01-06T13:46:43;8.30;99.90
35111;DHT22;21290;50.158;8.658;2024-01-06T13:49:14;8.30;99.90
35111;DHT22;21290;50.158;8.658;2024-01-06T13:51:41;8.30;99.90
35111;DHT22;21290;50.158;8.658;2024-01-06T13:54:08;8.20;99.90
35111;DHT22;21290;50.158;8.658;2024-01-06T13:56:36;8.20;99.90
35111;DHT22;21290;50.158;8.658;2024-01-06T13:59:03;8.20;99.90
35111;DHT22;21290;50.158;8.658;2024-01-06T14:01:30;8.20;99.90
35111;DHT22;21290;50.158;8.658;2024-01-06T14:03:57;8.20;99.90
35111;DHT22;21290;50.158;8.658;2024-01-06T14:06:25;8.10;99.90
35111;DHT22;21290;50.158;8.658;2024-01-06T14:08:59;8.10;99.90
35111;DHT22;21290;50.158;8.658;2024-01-06T14:11:26;8.00;99.90
35111;DHT22;21290;50.158;8.658;2024-01-06T14:13:53;8.00;99.90
35111;DHT22;21290;50.158;8.658;2024-01-06T14:16:20;8.10;99.90
35111;DHT22;21290;50.158;8.658;2024-01-06T14:18:49;8.00;99.90
35111;DHT22;21290;50.158;8.658;2024-01-06T14:21:16;8.00;99.90
35111;DHT22;21290;50.158;8.658;2024-01-06T14:23:46;7.90;99.90
35111;DHT22;21290;50.158;8.658;2024-01-06T14:26:14;7.90;99.90
35111;DHT22;21290;50.158;8.658;2024-01-06T14:28:41;7.90;99.90
35111;DHT22;21290;50.158;8.658;2024-01-06T14:31:08;7.90;99.90
35111;DHT22;21290;50.158;8.658;2024-01-06T14:33:36;7.80;99.90
35111;DHT22;21290;50.158;8.658;2024-01-06T14:36:03;7.70;99.90
35111;DHT22;21290;50.158;8.658;2024-01-06T14:38:31;7.70;99.90
35111;DHT22;21290;50.158;8.658;2024-01-06T14:40:58;7.60;99.90
35111;DHT22;21290;50.158;8.658;2024-01-06T14:43:24;7.60;99.90
35111;DHT22;21290;50.158;8.658;2024-01-06T14:45:51;7.60;99.90
35111;DHT22;21290;50.158;8.658;2024-01-06T14:48:18;7.50;99.90
35111;DHT22;21290;50.158;8.658;2024-01-06T14:50:44;7.50;99.90
35111;DHT22;21290;50.158;8.658;2024-01-06T14:53:11;7.50;99.90
35111;DHT22;21290;50.158;8.658;2024-01-06T14:55:38;7.40;99.90
35111;DHT22;21290;50.158;8.658;2024-01-06T14:58:05;7.40;99.90
35111;DHT22;21290;50.158;8.658;2024-01-06T15:00:31;7.40;99.90
35111;DHT22;21290;50.158;8.658;2024-01-06T15:02:58;7.30;99.90
35111;DHT22;21290;50.158;8.658;2024-01-06T15:05:26;7.30;99.90
35111;DHT22;21290;50.158;8.658;2024-01-06T15:07:55;7.30;99.90
35111;DHT22;21290;50.158;8.658;2024-01-06T15:10:22;7.30;99.90
35111;DHT22;21290;50.158;8.658;2024-01-06T15:12:49;7.30;99.90
35111;DHT22;21290;50.158;8.658;2024-01-06T15:15:15;7.30;99.90
35111;DHT22;21290;50.158;8.658;2024-01-06T15:17:42;7.20;99.90
35111;DHT22;21290;50.158;8.658;2024-01-06T15:20:09;7.20;99.90
35111;DHT22;21290;50.158;8.658;2024-01-06T15:22:36;7.20;99.90
35111;DHT22;21290;50.158;8.658;2024-01-06T15:25:07;7.20;99.90
35111;DHT22;21290;50.158;8.658;2024-01-06T15:27:34;7.10;99.90
35111;DHT22;21290;50.158;8.658;2024-01-06T15:30:01;7.10;99.90
35111;DHT22;21290;50.158;8.658;2024-01-06T15:32:28;7.10;99.90
35111;DHT22;21290;50.158;8.658;2024-01-06T15:34:54;7.00;99.90
35111;DHT22;21290;50.158;8.658;2024-01-06T15:37:21;7.00;99.90
35111;DHT22;21290;50.158;8.658;2024-01-06T15:39:48;7.10;99.90
35111;DHT22;21290;50.158;8.658;2024-01-06T15:42:15;7.00;99.90
35111;DHT22;21290;50.158;8.658;2024-01-06T15:44:41;7.00;99.90
35111;DHT22;21290;50.158;8.658;2024-01-06T15:47:08;7.00;99.90
35111;DHT22;21290;50.158;8.658;2024-01-06T15:49:35;6.90;99.90
35111;DHT22;21290;50.158;8.658;2024-01-06T15:52:02;6.90;99.90